createdAt,value
2023-05-21T00:00:41.847Z,13.11
2023-05-21T00:03:14.308Z,13.12
2023-05-21T00:05:45.172Z,13.02
2023-05-21T00:08:14.452Z,13.00
2023-05-21T00:10:42.754Z,13.01
2023-05-21T00:13:10.843Z,13.05
2023-05-21T00:15:39.636Z,13.01
2023-05-21T00:18:07.751Z,12.90
2023-05-21T00:20:37.367Z,12.82
2023-05-21T00:23:05.811Z,12.83
2023-05-21T00:25:34.066Z,12.72
2023-05-21T00:28:02.805Z,12.61
2023-05-21T00:30:31.180Z,12.62
2023-05-21T00:33:02.924Z,12.54
2023-05-21T00:35:31.519Z,12.45
2023-05-21T00:37:59.850Z,12.34
2023-05-21T00:40:28.365Z,12.13
2023-05-21T00:42:57.474Z,12.17
2023-05-21T00:45:25.707Z,12.14
2023-05-21T00:47:54.846Z,12.11
2023-05-21T00:50:23.867Z,12.03
2023-05-21T00:52:52.101Z,11.99
2023-05-21T00:55:21.887Z,11.90
2023-05-21T00:57:50.138Z,11.87
2023-05-21T01:00:18.251Z,11.75
2023-05-21T01:02:47.021Z,11.68
2023-05-21T01:05:15.725Z,11.67
2023-05-21T01:07:43.857Z,11.58
2023-05-21T01:10:12.547Z,11.53
2023-05-21T01:12:44.058Z,11.54
2023-05-21T01:15:13.110Z,11.51
2023-05-21T01:17:42.280Z,11.56
2023-05-21T01:20:11.495Z,11.58
2023-05-21T01:22:55.296Z,11.53
2023-05-21T01:25:28.329Z,11.48
2023-05-21T01:27:56.452Z,11.38
2023-05-21T01:30:25.682Z,11.44
2023-05-21T01:33:15.812Z,11.41
2023-05-21T01:36:01.065Z,11.38
2023-05-21T01:38:44.034Z,11.39
2023-05-21T01:41:13.721Z,11.41
2023-05-21T01:43:46.741Z,11.40
2023-05-21T01:46:21.850Z,11.27
2023-05-21T01:48:53.030Z,11.22
2023-05-21T01:51:21.863Z,11.22
2023-05-21T01:53:50.415Z,11.23
2023-05-21T01:56:19.295Z,11.16
2023-05-21T01:58:50.134Z,11.17
2023-05-21T02:01:18.291Z,11.17
2023-05-21T02:03:47.349Z,11.13
2023-05-21T02:06:16.022Z,11.04
2023-05-21T02:08:45.648Z,10.99
2023-05-21T02:11:13.850Z,10.91
2023-05-21T02:13:42.837Z,10.87
2023-05-21T02:16:14.968Z,10.81
2023-05-21T02:18:44.357Z,10.82
2023-05-21T02:21:12.724Z,10.81
2023-05-21T02:23:42.099Z,10.79
2023-05-21T02:26:10.264Z,10.74
2023-05-21T02:28:38.898Z,10.78
2023-05-21T02:31:07.300Z,10.84
2023-05-21T02:33:35.395Z,10.83
2023-05-21T02:36:04.246Z,10.74
2023-05-21T02:38:32.921Z,10.64
2023-05-21T02:41:00.891Z,10.58
2023-05-21T02:43:29.032Z,10.56
2023-05-21T02:45:57.777Z,10.51
2023-05-21T02:48:27.603Z,10.39
2023-05-21T02:50:55.748Z,10.37
2023-05-21T02:53:24.200Z,10.40
2023-05-21T02:55:52.177Z,10.41
2023-05-21T02:58:21.692Z,10.33
2023-05-21T03:00:50.082Z,10.31
2023-05-21T03:03:18.144Z,10.34
2023-05-21T03:05:46.777Z,10.36
2023-05-21T03:08:15.116Z,10.43
2023-05-21T03:10:43.213Z,10.41
2023-05-21T03:13:12.912Z,10.51
2023-05-21T03:15:41.476Z,10.54
2023-05-21T03:18:12.116Z,10.62
2023-05-21T03:20:43.904Z,10.69
2023-05-21T03:23:16.268Z,10.78
2023-05-21T03:25:46.649Z,10.81
2023-05-21T03:28:15.994Z,10.83
2023-05-21T03:30:49.870Z,10.91
2023-05-21T03:33:53.992Z,11.01
2023-05-21T03:36:29.395Z,11.04
2023-05-21T03:38:58.400Z,11.07
2023-05-21T03:41:26.563Z,11.11
2023-05-21T03:44:01.576Z,11.14
2023-05-21T03:46:36.397Z,11.23
2023-05-21T03:49:11.259Z,11.31
2023-05-21T03:51:40.869Z,11.35
2023-05-21T03:54:11.876Z,11.42
2023-05-21T03:56:41.317Z,11.47
2023-05-21T03:59:10.341Z,11.45
2023-05-21T04:01:39.227Z,11.56
2023-05-21T04:04:10.137Z,11.70
2023-05-21T04:06:38.409Z,11.82
2023-05-21T04:09:06.476Z,11.95
2023-05-21T04:11:34.964Z,12.13
2023-05-21T04:14:03.028Z,12.33
2023-05-21T04:16:31.319Z,12.61
2023-05-21T04:18:59.831Z,12.97
2023-05-21T04:21:28.670Z,13.33
2023-05-21T04:23:57.659Z,13.87
2023-05-21T04:26:48.494Z,14.18
2023-05-21T04:29:18.211Z,14.44
2023-05-21T04:31:46.794Z,14.53
2023-05-21T04:34:19.177Z,14.83
2023-05-21T04:36:48.660Z,15.05
2023-05-21T04:39:17.244Z,15.18
2023-05-21T04:41:45.368Z,15.41
2023-05-21T04:44:15.325Z,15.44
2023-05-21T04:46:46.309Z,15.60
2023-05-21T04:49:15.869Z,15.70
2023-05-21T04:51:44.764Z,15.93
2023-05-21T04:54:13.095Z,16.01
2023-05-21T04:56:41.359Z,16.18
2023-05-21T04:59:09.506Z,16.34
2023-05-21T05:01:38.632Z,16.31
2023-05-21T05:04:07.233Z,16.84
2023-05-21T05:06:35.299Z,16.76
2023-05-21T05:09:04.676Z,16.24
2023-05-21T05:11:33.301Z,16.51
2023-05-21T05:14:01.324Z,16.71
2023-05-21T05:16:29.976Z,16.85
2023-05-21T05:18:58.702Z,17.13
2023-05-21T05:21:27.530Z,17.48
2023-05-21T05:23:56.021Z,17.27
2023-05-21T05:26:28.526Z,17.22
2023-05-21T05:28:57.683Z,17.38
2023-05-21T05:31:25.845Z,17.29
2023-05-21T05:33:55.492Z,17.45
2023-05-21T05:36:26.227Z,17.76
2023-05-21T05:38:54.352Z,17.77
2023-05-21T05:41:23.742Z,17.80
2023-05-21T05:43:52.164Z,17.52
2023-05-21T05:46:23.488Z,17.62
2023-05-21T05:48:55.879Z,17.67
2023-05-21T05:51:26.745Z,17.90
2023-05-21T05:53:56.228Z,18.00
2023-05-21T05:56:24.700Z,18.17
2023-05-21T05:58:53.527Z,18.48
2023-05-21T06:01:24.991Z,18.78
2023-05-21T06:03:54.622Z,18.79
2023-05-21T06:06:30.496Z,18.73
2023-05-21T06:09:01.215Z,19.08
2023-05-21T06:11:29.704Z,18.67
2023-05-21T06:14:01.522Z,18.97
2023-05-21T06:16:34.399Z,19.41
2023-05-21T06:19:04.156Z,19.74
2023-05-21T06:21:33.393Z,19.29
2023-05-21T06:24:05.007Z,19.64
2023-05-21T06:26:34.346Z,19.77
2023-05-21T06:29:06.268Z,19.51
2023-05-21T06:31:37.550Z,19.72
2023-05-21T06:34:07.186Z,19.92
2023-05-21T06:36:35.886Z,19.66
2023-05-21T06:39:06.101Z,20.13
2023-05-21T06:41:34.603Z,20.09
2023-05-21T06:44:06.259Z,20.23
2023-05-21T06:46:53.323Z,20.70
2023-05-21T06:49:22.079Z,20.68
2023-05-21T06:51:50.254Z,20.03
2023-05-21T06:54:20.042Z,19.87
2023-05-21T06:56:48.593Z,19.91
2023-05-21T06:59:17.533Z,20.23
2023-05-21T07:01:46.541Z,20.69
2023-05-21T07:04:15.558Z,20.91
2023-05-21T07:06:45.318Z,21.21
2023-05-21T07:09:13.523Z,21.45
2023-05-21T07:11:42.284Z,21.71
2023-05-21T07:14:11.395Z,22.11
2023-05-21T07:16:40.110Z,22.21
2023-05-21T07:19:09.297Z,22.58
2023-05-21T07:21:37.592Z,22.68
2023-05-21T07:24:08.645Z,22.60
2023-05-21T07:26:40.567Z,22.49
2023-05-21T07:29:09.093Z,22.15
2023-05-21T07:31:37.314Z,22.19
2023-05-21T07:34:05.894Z,22.81
2023-05-21T07:36:34.549Z,22.83
2023-05-21T07:39:04.417Z,23.13
2023-05-21T07:41:32.990Z,23.33
2023-05-21T07:44:03.820Z,22.84
2023-05-21T07:46:34.543Z,23.02
2023-05-21T07:49:02.731Z,23.31
2023-05-21T07:51:31.722Z,23.26
2023-05-21T07:53:59.932Z,23.63
2023-05-21T07:56:33.803Z,23.53
2023-05-21T07:59:02.499Z,23.95
2023-05-21T08:01:31.378Z,23.84
2023-05-21T08:04:02.426Z,23.20
2023-05-21T08:06:31.727Z,23.47
2023-05-21T08:09:04.256Z,23.77
2023-05-21T08:11:34.129Z,23.61
2023-05-21T08:14:02.916Z,24.29
2023-05-21T08:16:31.653Z,24.31
2023-05-21T08:19:00.030Z,24.20
2023-05-21T08:21:28.338Z,23.85
2023-05-21T08:23:57.587Z,23.78
2023-05-21T08:26:26.764Z,23.64
2023-05-21T08:28:54.972Z,23.32
2023-05-21T08:31:23.873Z,23.16
2023-05-21T08:33:54.022Z,22.53
2023-05-21T08:36:32.012Z,23.27
2023-05-21T08:39:06.957Z,23.60
2023-05-21T08:41:39.011Z,23.73
2023-05-21T08:44:12.494Z,23.80
2023-05-21T08:46:42.964Z,24.24
2023-05-21T08:49:16.773Z,24.13
2023-05-21T08:51:47.274Z,24.02
2023-05-21T08:54:16.266Z,23.94
2023-05-21T08:56:49.721Z,23.64
2023-05-21T08:59:21.188Z,23.69
2023-05-21T09:01:51.233Z,23.48
2023-05-21T09:04:26.412Z,23.91
2023-05-21T09:06:58.311Z,24.25
2023-05-21T09:10:08.380Z,24.42
2023-05-21T09:12:36.810Z,24.09
2023-05-21T09:15:06.574Z,24.87
2023-05-21T09:17:37.023Z,24.96
2023-05-21T09:20:29.193Z,25.17
2023-05-21T09:23:17.320Z,23.92
2023-05-21T09:25:49.662Z,24.40
2023-05-21T09:28:25.787Z,24.72
2023-05-21T09:30:55.036Z,24.31
2023-05-21T09:33:31.802Z,24.22
2023-05-21T09:36:00.435Z,24.79
2023-05-21T09:38:29.561Z,24.33
2023-05-21T09:40:58.899Z,24.12
2023-05-21T09:43:28.843Z,24.18
2023-05-21T09:46:01.299Z,24.61
2023-05-21T09:48:44.020Z,24.92
2023-05-21T09:51:18.869Z,24.94
2023-05-21T09:53:58.294Z,24.67
2023-05-21T09:56:32.660Z,24.76
2023-05-21T09:59:07.060Z,24.92
2023-05-21T10:01:36.211Z,25.03
2023-05-21T10:04:08.464Z,24.64
2023-05-21T10:06:55.074Z,24.49
2023-05-21T10:09:24.150Z,24.63
2023-05-21T10:11:55.018Z,24.84
2023-05-21T10:14:27.033Z,24.31
2023-05-21T10:16:56.150Z,24.65
2023-05-21T10:19:25.895Z,24.49
2023-05-21T10:21:57.536Z,24.64
2023-05-21T10:24:27.503Z,24.81
2023-05-21T10:26:56.107Z,25.34
2023-05-21T10:29:24.538Z,25.41
2023-05-21T10:31:53.886Z,25.52
2023-05-21T10:34:23.507Z,25.99
2023-05-21T10:36:52.907Z,26.15
2023-05-21T10:39:22.400Z,25.76
2023-05-21T10:43:04.327Z,26.04
2023-05-21T10:45:59.751Z,26.98
2023-05-21T10:49:08.950Z,26.56
2023-05-21T10:52:07.700Z,26.49
2023-05-21T10:55:26.864Z,26.64
2023-05-21T10:58:35.360Z,26.71
2023-05-21T11:01:03.954Z,26.55
2023-05-21T11:03:36.542Z,26.36
2023-05-21T11:06:07.018Z,26.50
2023-05-21T11:08:39.059Z,26.68
2023-05-21T11:11:07.769Z,26.74
2023-05-21T11:13:49.726Z,26.21
2023-05-21T11:16:21.559Z,26.15
2023-05-21T11:18:49.567Z,26.37
2023-05-21T11:21:21.454Z,26.22
2023-05-21T11:23:59.129Z,25.91
2023-05-21T11:26:47.891Z,25.47
2023-05-21T11:29:16.709Z,25.96
2023-05-21T11:32:01.405Z,26.39
2023-05-21T11:34:40.439Z,26.75
2023-05-21T11:37:18.455Z,26.85
2023-05-21T11:39:48.504Z,26.18
2023-05-21T11:42:39.221Z,26.51
2023-05-21T11:45:08.774Z,27.20
2023-05-21T11:47:37.357Z,26.78
2023-05-21T11:50:08.177Z,26.35
2023-05-21T11:52:36.732Z,26.58
2023-05-21T11:55:05.883Z,27.11
2023-05-21T11:57:35.260Z,26.52
2023-05-21T12:00:14.368Z,26.90
2023-05-21T12:02:57.437Z,27.69
2023-05-21T12:05:27.542Z,27.47
2023-05-21T12:07:56.868Z,27.04
2023-05-21T12:10:25.209Z,25.77
2023-05-21T12:12:56.397Z,25.93
2023-05-21T12:15:27.169Z,25.96
2023-05-21T12:17:57.252Z,26.62
2023-05-21T12:20:28.435Z,26.68
2023-05-21T12:22:59.288Z,27.67
2023-05-21T12:25:28.156Z,26.38
2023-05-21T12:27:58.894Z,26.34
2023-05-21T12:30:28.558Z,25.74
2023-05-21T12:32:59.672Z,26.03
2023-05-21T12:35:27.987Z,25.99
2023-05-21T12:37:56.945Z,26.45
2023-05-21T12:40:39.729Z,25.98
2023-05-21T12:43:08.793Z,26.59
2023-05-21T12:45:39.763Z,27.19
2023-05-21T12:48:08.945Z,27.80
2023-05-21T12:50:42.100Z,28.15
2023-05-21T12:53:13.431Z,28.14
2023-05-21T12:55:41.797Z,26.25
2023-05-21T12:58:14.628Z,26.67
2023-05-21T13:00:44.241Z,26.78
2023-05-21T13:03:14.612Z,27.29
2023-05-21T13:05:44.223Z,26.55
2023-05-21T13:08:15.024Z,26.75
2023-05-21T13:10:43.525Z,26.05
2023-05-21T13:13:11.935Z,26.33
2023-05-21T13:15:40.733Z,26.40
2023-05-21T13:18:09.316Z,26.15
2023-05-21T13:20:37.936Z,26.22
2023-05-21T13:23:07.687Z,27.11
2023-05-21T13:25:37.815Z,27.11
2023-05-21T13:28:07.423Z,26.33
2023-05-21T13:30:35.738Z,26.67
2023-05-21T13:33:04.446Z,26.76
2023-05-21T13:35:32.940Z,26.07
2023-05-21T13:38:01.328Z,25.07
2023-05-21T13:40:29.733Z,25.89
2023-05-21T13:42:58.100Z,26.82
2023-05-21T13:45:29.455Z,26.62
2023-05-21T13:47:58.901Z,26.52
2023-05-21T13:50:27.537Z,26.28
2023-05-21T13:52:55.814Z,26.38
2023-05-21T13:55:24.062Z,25.70
2023-05-21T13:57:52.332Z,26.18
2023-05-21T14:00:20.497Z,25.50
2023-05-21T14:02:50.252Z,25.75
2023-05-21T14:05:18.614Z,26.66
2023-05-21T14:07:48.452Z,26.44
2023-05-21T14:10:17.424Z,26.73
2023-05-21T14:12:46.714Z,26.74
2023-05-21T14:15:15.261Z,27.39
2023-05-21T14:17:43.798Z,26.40
2023-05-21T14:20:12.441Z,26.30
2023-05-21T14:22:40.502Z,26.32
2023-05-21T14:25:09.525Z,26.35
2023-05-21T14:27:38.317Z,26.49
2023-05-21T14:30:08.035Z,26.32
2023-05-21T14:32:37.625Z,26.18
2023-05-21T14:35:06.564Z,26.76
2023-05-21T14:37:34.813Z,26.72
2023-05-21T14:40:05.703Z,26.88
2023-05-21T14:42:35.907Z,26.39
2023-05-21T14:45:18.040Z,26.79
2023-05-21T14:47:48.134Z,26.71
2023-05-21T14:50:17.309Z,26.96
2023-05-21T14:52:45.582Z,26.80
2023-05-21T14:55:14.095Z,26.78
2023-05-21T14:57:42.300Z,26.14
2023-05-21T15:00:13.278Z,25.97
2023-05-21T15:02:42.849Z,25.36
2023-05-21T15:05:11.270Z,25.74
2023-05-21T15:07:40.006Z,26.13
2023-05-21T15:10:09.323Z,25.44
2023-05-21T15:12:38.984Z,25.99
2023-05-21T15:15:09.234Z,25.58
2023-05-21T15:17:37.940Z,25.34
2023-05-21T15:20:06.929Z,25.39
2023-05-21T15:22:35.402Z,24.97
2023-05-21T15:25:05.020Z,24.65
2023-05-21T15:27:34.286Z,25.27
2023-05-21T15:30:03.360Z,25.33
2023-05-21T15:32:32.238Z,25.62
2023-05-21T15:35:00.621Z,25.07
2023-05-21T15:37:32.406Z,24.42
2023-05-21T15:40:01.699Z,24.95
2023-05-21T15:42:32.018Z,24.23
2023-05-21T15:45:00.753Z,24.40
2023-05-21T15:47:29.189Z,24.57
2023-05-21T15:49:59.129Z,24.70
2023-05-21T15:52:28.317Z,24.23
2023-05-21T15:54:56.755Z,24.15
2023-05-21T15:57:25.286Z,23.84
2023-05-21T15:59:53.874Z,23.95
2023-05-21T16:02:22.270Z,23.90
2023-05-21T16:04:51.965Z,24.14
2023-05-21T16:07:20.356Z,24.63
2023-05-21T16:09:49.458Z,24.66
2023-05-21T16:12:18.173Z,24.72
2023-05-21T16:14:50.458Z,24.94
2023-05-21T16:17:19.948Z,24.67
2023-05-21T16:19:48.217Z,24.95
2023-05-21T16:22:17.388Z,24.91
2023-05-21T16:24:46.559Z,24.82
2023-05-21T16:27:16.196Z,24.91
2023-05-21T16:29:45.764Z,24.47
2023-05-21T16:32:14.809Z,24.82
2023-05-21T16:34:44.818Z,24.52
2023-05-21T16:37:13.684Z,24.76
2023-05-21T16:39:42.285Z,24.80
2023-05-21T16:42:11.256Z,25.05
2023-05-21T16:44:41.241Z,25.04
2023-05-21T16:47:09.491Z,25.38
2023-05-21T16:49:37.539Z,25.76
2023-05-21T16:52:06.504Z,25.85
2023-05-21T16:54:34.754Z,26.28
2023-05-21T16:57:02.878Z,26.52
2023-05-21T16:59:32.601Z,26.58
2023-05-21T17:02:01.070Z,26.59
2023-05-21T17:04:30.436Z,26.60
2023-05-21T17:06:59.089Z,26.73
2023-05-21T17:09:27.284Z,26.44
2023-05-21T17:12:02.185Z,26.26
2023-05-21T17:14:34.428Z,26.21
2023-05-21T17:17:03.822Z,26.06
2023-05-21T17:19:32.182Z,26.01
2023-05-21T17:22:00.543Z,25.71
2023-05-21T17:24:29.857Z,25.58
2023-05-21T17:26:58.425Z,25.07
2023-05-21T17:29:27.297Z,24.99
2023-05-21T17:31:55.985Z,25.05
2023-05-21T17:34:27.077Z,25.04
2023-05-21T17:36:58.258Z,24.80
2023-05-21T17:39:29.556Z,24.38
2023-05-21T17:41:58.407Z,23.80
2023-05-21T17:44:26.998Z,23.72
2023-05-21T17:46:58.174Z,23.36
2023-05-21T17:49:26.608Z,23.14
2023-05-21T17:51:55.450Z,22.82
2023-05-21T17:54:24.729Z,22.48
2023-05-21T17:56:53.429Z,21.94
2023-05-21T17:59:22.524Z,21.62
2023-05-21T18:01:51.149Z,21.29
2023-05-21T18:04:20.650Z,21.10
2023-05-21T18:06:49.783Z,20.67
2023-05-21T18:09:18.183Z,20.21
2023-05-21T18:11:46.475Z,19.76
2023-05-21T18:14:15.002Z,19.55
2023-05-21T18:16:43.405Z,19.28
2023-05-21T18:19:11.829Z,19.01
2023-05-21T18:21:40.577Z,18.81
2023-05-21T18:24:09.243Z,18.64
2023-05-21T18:26:37.677Z,18.52
2023-05-21T18:29:06.297Z,18.40
2023-05-21T18:31:34.498Z,18.26
2023-05-21T18:34:02.707Z,18.16
2023-05-21T18:36:38.579Z,18.04
2023-05-21T18:39:08.086Z,17.95
2023-05-21T18:41:37.573Z,17.75
2023-05-21T18:44:06.624Z,17.66
2023-05-21T18:46:35.331Z,17.51
2023-05-21T18:49:05.185Z,17.37
2023-05-21T18:51:33.716Z,17.30
2023-05-21T18:54:01.935Z,17.19
2023-05-21T18:56:30.311Z,17.09
2023-05-21T18:58:59.082Z,16.94
2023-05-21T19:01:27.339Z,16.93
2023-05-21T19:03:56.735Z,16.87
2023-05-21T19:06:26.625Z,16.78
2023-05-21T19:08:55.386Z,16.63
2023-05-21T19:11:24.899Z,16.58
2023-05-21T19:13:53.454Z,16.55
2023-05-21T19:16:22.362Z,16.47
2023-05-21T19:18:51.074Z,16.39
2023-05-21T19:21:19.893Z,16.31
2023-05-21T19:23:52.541Z,16.22
2023-05-21T19:26:23.053Z,16.15
2023-05-21T19:28:53.781Z,16.09
2023-05-21T19:31:23.719Z,16.12
2023-05-21T19:33:53.094Z,15.95
2023-05-21T19:36:22.301Z,15.95
2023-05-21T19:38:51.156Z,15.80
2023-05-21T19:41:20.125Z,15.84
2023-05-21T19:43:48.798Z,15.80
2023-05-21T19:46:20.298Z,15.71
2023-05-21T19:48:51.288Z,15.69
2023-05-21T19:51:20.066Z,15.67
2023-05-21T19:53:48.671Z,15.64
2023-05-21T19:56:17.219Z,15.66
2023-05-21T19:58:48.145Z,15.73
2023-05-21T20:01:18.109Z,15.69
2023-05-21T20:03:46.759Z,15.62
2023-05-21T20:06:21.020Z,15.65
2023-05-21T20:08:49.381Z,15.69
2023-05-21T20:11:17.742Z,15.68
2023-05-21T20:13:50.658Z,15.65
2023-05-21T20:16:20.353Z,15.63
2023-05-21T20:18:49.697Z,15.56
2023-05-21T20:21:19.222Z,15.53
2023-05-21T20:23:47.699Z,15.46
2023-05-21T20:26:17.449Z,15.38
2023-05-21T20:28:46.448Z,15.35
2023-05-21T20:31:15.339Z,15.31
2023-05-21T20:33:43.770Z,15.27
2023-05-21T20:36:13.632Z,15.23
2023-05-21T20:38:42.377Z,15.27
2023-05-21T20:41:10.997Z,15.24
2023-05-21T20:43:39.808Z,15.20
2023-05-21T20:46:08.263Z,15.14
2023-05-21T20:48:38.012Z,15.08
2023-05-21T20:51:07.062Z,14.97
2023-05-21T20:53:36.279Z,14.84
2023-05-21T20:56:08.397Z,14.67
2023-05-21T20:58:37.150Z,14.47
2023-05-21T21:01:07.808Z,14.33
2023-05-21T21:03:37.266Z,14.33
2023-05-21T21:06:06.558Z,14.27
2023-05-21T21:08:34.928Z,14.16
2023-05-21T21:11:03.254Z,14.13
2023-05-21T21:13:31.872Z,14.11
2023-05-21T21:16:00.220Z,13.95
2023-05-21T21:18:28.888Z,13.86
2023-05-21T21:20:57.126Z,13.82
2023-05-21T21:23:28.155Z,13.78
2023-05-21T21:25:57.459Z,13.62
2023-05-21T21:28:26.152Z,13.39
2023-05-21T21:30:55.218Z,13.30
2023-05-21T21:33:24.779Z,13.16
2023-05-21T21:35:54.208Z,13.05
2023-05-21T21:38:22.810Z,13.04
2023-05-21T21:40:51.696Z,12.97
2023-05-21T21:43:19.988Z,12.85
2023-05-21T21:45:48.199Z,12.90
2023-05-21T21:48:16.966Z,12.76
2023-05-21T21:50:45.380Z,12.70
2023-05-21T21:53:14.196Z,12.58
2023-05-21T21:55:42.546Z,12.35
2023-05-21T21:58:10.690Z,12.27
2023-05-21T22:00:40.053Z,12.31
2023-05-21T22:03:09.183Z,12.28
2023-05-21T22:05:38.831Z,12.25
2023-05-21T22:08:07.089Z,12.08
2023-05-21T22:10:38.304Z,12.06
2023-05-21T22:13:06.868Z,11.97
2023-05-21T22:15:35.691Z,11.91
2023-05-21T22:18:04.292Z,11.83
2023-05-21T22:20:35.252Z,11.81
2023-05-21T22:23:03.588Z,11.70
2023-05-21T22:25:31.659Z,11.65
2023-05-21T22:28:00.127Z,11.60
2023-05-21T22:30:28.610Z,11.57
2023-05-21T22:32:59.869Z,11.52
2023-05-21T22:35:27.923Z,11.39
2023-05-21T22:37:56.406Z,11.44
2023-05-21T22:40:24.968Z,11.50
2023-05-21T22:42:53.158Z,11.58
2023-05-21T22:45:22.096Z,11.57
2023-05-21T22:47:52.065Z,11.71
2023-05-21T22:50:20.592Z,11.73
2023-05-21T22:52:49.944Z,11.49
2023-05-21T22:55:18.159Z,11.39
2023-05-21T22:57:46.370Z,11.28
2023-05-21T23:00:14.897Z,11.24
2023-05-21T23:02:43.042Z,11.21
2023-05-21T23:05:11.261Z,11.05
2023-05-21T23:07:39.972Z,11.01
2023-05-21T23:10:09.093Z,10.98
2023-05-21T23:12:37.639Z,10.95
2023-05-21T23:15:07.652Z,10.87
2023-05-21T23:17:36.466Z,10.81
2023-05-21T23:20:06.282Z,10.76
2023-05-21T23:22:36.147Z,10.75
2023-05-21T23:25:05.374Z,10.51
2023-05-21T23:27:33.387Z,10.45
2023-05-21T23:30:01.868Z,10.43
2023-05-21T23:32:29.992Z,10.38
2023-05-21T23:34:58.413Z,10.37
2023-05-21T23:37:26.918Z,10.28
2023-05-21T23:39:55.039Z,10.29
2023-05-21T23:42:23.298Z,10.20
2023-05-21T23:44:51.608Z,10.08
2023-05-21T23:47:19.672Z,10.04
2023-05-21T23:49:47.932Z,9.94
2023-05-21T23:52:18.938Z,9.90
2023-05-21T23:54:47.235Z,9.86
2023-05-21T23:57:15.300Z,9.80
2023-05-21T23:59:43.920Z,9.76
